עמוד ראשי
METAR-TAF:

METAR-TAF

שדות תעופה :

Armilla

גרנדה, ספרד

קו רוחב: 37-08N, קו אורך: 003-38-08W, גובה: 700מטר

תצפית מזג אוויר נוכחית

הדו"ח נערך לפני 17דקות, בשעה 13:00 UTC
רוח 6קשר עם כיוונים משתנים עם משבים עד 16קשר
טמפרטורת 36 צלסיוס
לחות 18%
לחץ 1018 hPa
ראות 10 קילומטר או יותר
ללא עננים שבסיסם נמוך מ 5000 רגל או קומולונימבוס

METAR: LEGA 171300Z VRB06G16KT CAVOK 36/08 Q1018

זמן: 15:17 (13:17 UTC)

תחזית

הדו"ח נערך לפני 1 שעות ו 5דקות, בשעה 12:12 UTC
תחזית בתוקף מ 17 ב 12 UTC עד 18 ב 12 UTC
רוח 11קשר מכיוון דרום
ראות 10 קילומטר או יותר
ללא עננים שבסיסם נמוך מ 5000 רגל או קומולונימבוס
הסתברות 40% :
זמנית מ -
17 ב 12 UTC עד 17 ב 14 UTC
רוח 3קשר עם כיוונים משתנים
יעשה מ
17 ב 21 UTC עד 17 ב 23 UTC
רוח 3קשר עם כיוונים משתנים

TAF: LEGA 171212Z 1712/1812 17011KT CAVOK TX39/1715Z TN18/1806Z PROB40 TEMPO 1712/1714 VRB03KT BECMG 1721/1723 VRB03KT

תצפיות ותחזיות מזג אוויר לגבי יותר מ- 4,000 שדות תעופה ברחבי העולם. דוחות METAR ו- TAF.

התחנות הזמינות מסומנות בנקודות צהובות ואדומות על גבי המפה.

העבר את העכבר לנקודה הצבעונית על מנת לראות את שם התחנה.

לאחר מכן, לחץ כדי לראות את תוכן ואת תחזיות מזג האוויר.

כדי לשנות את המפה: לחץ על הכפתורים הירוקים עם הפלוס השחור כדי להתקרב; על הכפתור הירוק עם המקף כדי להתרחק; או בחיצים הירוקים למפות סמוכות.


METAR-TAF: